Hlavní strana
METAR-TAF:

METAR-TAF

Letiště :

Ube, Japonsko

zeměpisná šířka: 33-57N, zeměpisná délka: 131-15E, výška: 5 m

Aktuální stav počasí

Zpráva byla vytvořena před 58 minutami, v 09:00 UTC
Západojihozápadní vítr 4 kt
Teplota 11°C
Vlhkost vzduchu 82%
Tlak 1023 hPa
Viditelnost 10 km a více
Skoro jasno ve výšce 3500 ft
Oblačno až skoro zataženo

METAR: RJDC 240900Z 25004KT 9999 FEW035 BKN/// 11/08 Q1023

Čas: 18:58 (09:58 UTC)


TAF: chybějící

Stav a předpovědi počasí z více než 4 000 letišť (zprávy METAR a TAF).

Červené a žluté tečky na mapě představují dostupné meteorologické stanice.

Když kurzor umístíte na tečku, zobrazí se název stanice.

Pak kliknutím zobrazíte stav a předpověď počasí.

Chcete-li změnit mapu, kliknutím na zelené tlačítko se znaménkem +mapu přiblížíte, kliknutím na zelené tlačítko se znaménkem – mapu oddálíte a kliknutím na zelené šipky přejdete na sousední mapy.


METAR-TAF: